الصفحة الرئيسية
METAR-TAF:

METAR-TAF

مطار :

جبل كيليمانجارو, تنزانيا

دائرة عرض: 03-25S, خط طول: 037-04E, ارتفاع: 891 متر

مراقبة الطقس الحالي

تاريخ ووقت الإصدار 1ساعة و 15 دقيقة قبل الساعة 04:00UTC
ريح 5 عقدة من الشمال الشرقي
درجة الحرارة 19°درجة مئوية
الرطوبة 88%
ضغط 1021 hPa
الرؤية 10 كم أو أكثر
غيوم مفككة على ارتفاع 2400 قدم

METAR: HTKJ 160400Z 05005KT 9999 BKN024 19/17 Q1021

زمن: 08:15 (05:15 UTC)

توقعات

تاريخ ووقت الإصدار 6ساعات و 15 دقيقة قبل الساعة 23:00UTC
التوقعات صالحة من16 الساعة 00 UTC إلى 16 الساعة 24 UTC
ريح 5 عقدة من الشرق
الرؤية 10 كم أو أكثر
غيوم مفككة على ارتفاع 2300 قدم

TAF: HTKJ 152300Z 1600/1624 09005KT 9999 BKN023

أرصاد الطقس والتوقعات من أكثر من 4000 مطار (تقارير الطقس للمطار METAR والتنبؤ بالطقس بالمطارTAF).

المحطات المتاحة هي النقط الصفراء والحمراء على الخريطة.

حرك المؤشر فوق النقطة لمعرفة اسم المحطة.

ثم انقر لمعرفة أرصاد وتوقعات الطقس.

لتغيير الخارطة: اضغط على الأزرار الخضراء مع رمز الصليب الأسود للتكبير. على الزر الأخضر مع شرطة للتصغير، أو على الأسهم الخضراء للخرائط المجاورة.


METAR-TAF: